createdAt,value
2023-02-11T00:02:47.984Z,103341.84
2023-02-11T00:05:59.638Z,103331.94
2023-02-11T00:09:06.652Z,103326.50
2023-02-11T00:12:12.181Z,103335.47
2023-02-11T00:15:17.623Z,103324.16
2023-02-11T00:18:23.320Z,103317.03
2023-02-11T00:21:29.271Z,103313.88
2023-02-11T00:24:36.158Z,103316.69
2023-02-11T00:27:41.604Z,103320.03
2023-02-11T00:30:55.658Z,103317.78
2023-02-11T00:34:01.068Z,103315.91
2023-02-11T00:37:07.168Z,103316.28
2023-02-11T00:40:12.793Z,103316.69
2023-02-11T00:43:18.552Z,103314.69
2023-02-11T00:46:24.802Z,103322.19
2023-02-11T00:49:30.668Z,103326.50
2023-02-11T00:52:36.957Z,103323.50
2023-02-11T00:55:42.829Z,103321.81
2023-02-11T00:58:48.948Z,103323.22
2023-02-11T01:01:56.174Z,103326.56
2023-02-11T01:05:02.264Z,103324.53
2023-02-11T01:08:07.999Z,103325.81
2023-02-11T01:11:18.244Z,103323.13
2023-02-11T01:14:24.066Z,103318.50
2023-02-11T01:17:30.227Z,103319.16
2023-02-11T01:20:35.744Z,103319.94
2023-02-11T01:23:41.497Z,103312.44
2023-02-11T01:26:47.351Z,103314.59
2023-02-11T01:29:52.645Z,103317.19
2023-02-11T01:32:59.465Z,103309.72
2023-02-11T01:36:06.636Z,103313.97
2023-02-11T01:39:12.176Z,103304.50
2023-02-11T01:42:20.481Z,103297.75
2023-02-11T01:45:45.242Z,103305.72
2023-02-11T01:48:55.889Z,103302.88
2023-02-11T01:52:03.958Z,103305.22
2023-02-11T01:55:31.711Z,103306.19
2023-02-11T01:58:41.903Z,103309.16
2023-02-11T02:01:54.080Z,103289.31
2023-02-11T02:05:46.132Z,103296.97
2023-02-11T02:09:02.515Z,103299.16
2023-02-11T02:12:07.930Z,103282.03
2023-02-11T02:15:19.693Z,103278.47
2023-02-11T02:18:56.195Z,103284.47
2023-02-11T02:22:29.626Z,103280.63
2023-02-11T02:25:46.683Z,103292.88
2023-02-11T02:29:01.066Z,103295.78
2023-02-11T02:32:31.409Z,103293.31
2023-02-11T02:35:58.212Z,103286.25
2023-02-11T02:39:06.715Z,103287.03
2023-02-11T02:42:14.462Z,103282.91
2023-02-11T02:45:20.468Z,103277.06
2023-02-11T02:48:32.290Z,103263.38
2023-02-11T02:51:52.677Z,103272.28
2023-02-11T02:55:35.517Z,103283.59
2023-02-11T02:59:08.361Z,103269.69
2023-02-11T03:02:37.584Z,103261.38
2023-02-11T03:06:07.536Z,103266.97
2023-02-11T03:09:20.478Z,103258.25
2023-02-11T03:12:30.106Z,103252.06
2023-02-11T03:15:41.684Z,103252.25
2023-02-11T03:19:06.239Z,103247.88
2023-02-11T03:22:26.453Z,103242.56
2023-02-11T03:25:38.242Z,103236.31
2023-02-11T03:28:51.664Z,103242.47
2023-02-11T03:32:07.696Z,103231.44
2023-02-11T03:35:33.158Z,103236.47
2023-02-11T03:38:45.490Z,103232.25
2023-02-11T03:41:53.476Z,103223.59
2023-02-11T03:45:07.870Z,103219.66
2023-02-11T03:48:19.219Z,103217.84
2023-02-11T03:51:28.196Z,103216.16
2023-02-11T03:54:35.479Z,103209.63
2023-02-11T03:57:41.051Z,103209.47
2023-02-11T04:00:46.588Z,103211.50
2023-02-11T04:03:51.914Z,103206.06
2023-02-11T04:06:57.886Z,103204.78
2023-02-11T04:10:03.535Z,103207.09
2023-02-11T04:13:08.644Z,103202.72
2023-02-11T04:16:14.321Z,103212.44
2023-02-11T04:19:19.977Z,103207.50
2023-02-11T04:22:25.822Z,103204.88
2023-02-11T04:25:31.226Z,103202.91
2023-02-11T04:28:36.837Z,103194.13
2023-02-11T04:31:42.375Z,103202.13
2023-02-11T04:34:48.625Z,103195.50
2023-02-11T04:37:54.103Z,103196.19
2023-02-11T04:41:00.901Z,103180.25
2023-02-11T04:44:06.516Z,103181.09
2023-02-11T04:47:13.752Z,103184.56
2023-02-11T04:50:19.588Z,103178.34
2023-02-11T04:53:25.553Z,103184.94
2023-02-11T04:56:30.844Z,103182.50
2023-02-11T04:59:36.457Z,103189.25
2023-02-11T05:02:41.555Z,103178.59
2023-02-11T05:05:46.868Z,103195.97
2023-02-11T05:08:55.168Z,103183.25
2023-02-11T05:12:00.538Z,103184.50
2023-02-11T05:15:06.330Z,103191.94
2023-02-11T05:18:12.149Z,103191.66
2023-02-11T05:21:19.678Z,103195.75
2023-02-11T05:24:25.749Z,103192.88
2023-02-11T05:27:30.987Z,103197.38
2023-02-11T05:30:36.498Z,103197.09
2023-02-11T05:33:42.312Z,103196.34
2023-02-11T05:36:47.600Z,103198.44
2023-02-11T05:39:52.755Z,103191.78
2023-02-11T05:42:58.668Z,103191.06
2023-02-11T05:46:04.844Z,103182.81
2023-02-11T05:49:10.806Z,103180.47
2023-02-11T05:52:16.754Z,103176.16
2023-02-11T05:55:22.261Z,103168.81
2023-02-11T05:58:28.096Z,103172.75
2023-02-11T06:01:33.489Z,103169.34
2023-02-11T06:04:39.070Z,103173.28
2023-02-11T06:07:44.646Z,103170.19
2023-02-11T06:10:50.512Z,103184.69
2023-02-11T06:13:56.271Z,103177.09
2023-02-11T06:17:01.936Z,103177.78
2023-02-11T06:20:09.177Z,103173.97
2023-02-11T06:23:14.723Z,103172.16
2023-02-11T06:26:22.843Z,103170.50
2023-02-11T06:29:28.461Z,103173.69
2023-02-11T06:32:49.384Z,103160.28
2023-02-11T06:35:55.300Z,103161.97
2023-02-11T06:39:00.547Z,103173.41
2023-02-11T06:42:07.883Z,103170.72
2023-02-11T06:45:13.742Z,103173.47
2023-02-11T06:48:19.166Z,103177.31
2023-02-11T06:51:24.760Z,103171.34
2023-02-11T06:54:30.020Z,103166.69
2023-02-11T06:57:36.148Z,103178.19
2023-02-11T07:00:41.631Z,103164.81
2023-02-11T07:03:47.295Z,103167.84
2023-02-11T07:06:52.748Z,103170.84
2023-02-11T07:09:58.479Z,103163.25
2023-02-11T07:13:04.149Z,103163.66
2023-02-11T07:16:12.686Z,103165.22
2023-02-11T07:19:18.320Z,103170.38
2023-02-11T07:22:24.093Z,103183.75
2023-02-11T07:25:29.619Z,103184.41
2023-02-11T07:28:37.125Z,103181.94
2023-02-11T07:31:42.881Z,103189.66
2023-02-11T07:34:48.937Z,103191.88
2023-02-11T07:37:54.492Z,103198.41
2023-02-11T07:41:05.682Z,103196.53
2023-02-11T07:44:10.909Z,103209.25
2023-02-11T07:47:16.110Z,103203.75
2023-02-11T07:50:21.308Z,103208.88
2023-02-11T07:53:26.807Z,103212.69
2023-02-11T07:56:33.151Z,103201.72
2023-02-11T07:59:38.519Z,103217.22
2023-02-11T08:02:44.138Z,103223.22
2023-02-11T08:05:49.976Z,103205.22
2023-02-11T08:08:55.767Z,103210.66
2023-02-11T08:12:02.720Z,103206.78
2023-02-11T08:15:08.591Z,103204.00
2023-02-11T08:18:13.884Z,103199.56
2023-02-11T08:21:20.466Z,103206.19
2023-02-11T08:24:25.909Z,103210.53
2023-02-11T08:27:31.359Z,103205.38
2023-02-11T08:30:37.531Z,103206.03
2023-02-11T08:33:43.512Z,103207.06
2023-02-11T08:36:49.200Z,103213.81
2023-02-11T08:39:54.587Z,103226.63
2023-02-11T08:42:59.943Z,103226.69
2023-02-11T08:46:06.004Z,103221.25
2023-02-11T08:49:11.903Z,103215.22
2023-02-11T08:52:17.528Z,103208.53
2023-02-11T08:55:23.122Z,103215.69
2023-02-11T08:58:29.141Z,103217.69
2023-02-11T09:01:34.842Z,103222.72
2023-02-11T09:04:41.268Z,103225.75
2023-02-11T09:07:46.508Z,103228.06
2023-02-11T09:10:52.226Z,103226.53
2023-02-11T09:13:57.677Z,103229.44
2023-02-11T09:17:03.086Z,103237.41
2023-02-11T09:20:10.771Z,103237.44
2023-02-11T09:23:18.583Z,103239.66
2023-02-11T09:26:35.862Z,103234.84
2023-02-11T09:29:41.139Z,103231.75
2023-02-11T09:32:46.674Z,103226.75
2023-02-11T09:35:52.022Z,103228.66
2023-02-11T09:39:00.198Z,103223.88
2023-02-11T09:42:35.743Z,103221.13
2023-02-11T09:45:41.112Z,103217.72
2023-02-11T09:48:49.489Z,103210.59
2023-02-11T09:52:14.282Z,103213.09
2023-02-11T09:55:39.809Z,103209.28
2023-02-11T09:58:46.181Z,103212.16
2023-02-11T10:02:21.789Z,103209.59
2023-02-11T10:05:27.047Z,103211.22
2023-02-11T10:08:57.349Z,103209.16
2023-02-11T10:12:40.501Z,103226.63
2023-02-11T10:16:00.576Z,103226.34
2023-02-11T10:19:31.052Z,103235.97
2023-02-11T10:22:45.796Z,103237.41
2023-02-11T10:25:55.036Z,103227.03
2023-02-11T10:29:11.091Z,103223.66
2023-02-11T10:32:30.482Z,103228.72
2023-02-11T10:35:38.314Z,103225.97
2023-02-11T10:38:44.748Z,103224.66
2023-02-11T10:41:56.615Z,103230.56
2023-02-11T10:45:07.799Z,103211.63
2023-02-11T10:48:46.984Z,103210.69
2023-02-11T10:52:21.852Z,103204.41
2023-02-11T10:55:29.079Z,103217.22
2023-02-11T10:58:44.539Z,103197.47
2023-02-11T11:01:54.367Z,103190.22
2023-02-11T11:05:24.008Z,103190.63
2023-02-11T11:08:40.874Z,103185.47
2023-02-11T11:11:56.594Z,103179.03
2023-02-11T11:15:18.710Z,103179.03
2023-02-11T11:18:23.995Z,103172.66
2023-02-11T11:21:36.974Z,103164.53
2023-02-11T11:24:46.960Z,103161.09
2023-02-11T11:27:57.731Z,103159.59
2023-02-11T11:31:03.457Z,103149.06
2023-02-11T11:34:38.614Z,103144.28
2023-02-11T11:37:45.939Z,103142.53
2023-02-11T11:41:19.767Z,103137.31
2023-02-11T11:44:30.428Z,103130.31
2023-02-11T11:47:52.935Z,103118.00
2023-02-11T11:51:04.428Z,103127.69
2023-02-11T11:54:15.678Z,103126.81
2023-02-11T11:57:28.712Z,103126.63
2023-02-11T12:01:15.872Z,103128.16
2023-02-11T12:04:52.365Z,103113.22
2023-02-11T12:08:24.018Z,103110.03
2023-02-11T12:11:47.728Z,103111.50
2023-02-11T12:15:00.512Z,103109.53
2023-02-11T12:18:23.790Z,103095.59
2023-02-11T12:21:37.373Z,103090.66
2023-02-11T12:25:10.232Z,103092.25
2023-02-11T12:28:45.535Z,103074.53
2023-02-11T12:31:51.371Z,103080.00
2023-02-11T12:35:03.469Z,103072.38
2023-02-11T12:38:31.975Z,103076.53
2023-02-11T12:42:11.593Z,103073.53
2023-02-11T12:45:32.054Z,103061.84
2023-02-11T12:49:00.913Z,103066.28
2023-02-11T12:52:27.758Z,103062.91
2023-02-11T12:55:40.994Z,103056.22
2023-02-11T12:58:51.129Z,103061.66
2023-02-11T13:02:01.629Z,103055.19
2023-02-11T13:05:40.879Z,103054.88
2023-02-11T13:08:50.389Z,103044.78
2023-02-11T13:11:59.387Z,103046.13
2023-02-11T13:15:10.557Z,103042.56
2023-02-11T13:18:37.513Z,103040.38
2023-02-11T13:22:03.052Z,103031.56
2023-02-11T13:25:27.298Z,103033.22
2023-02-11T13:29:20.671Z,103043.28
2023-02-11T13:32:26.768Z,103035.44
2023-02-11T13:35:37.576Z,103027.34
2023-02-11T13:39:00.198Z,103027.00
2023-02-11T13:42:05.788Z,103024.28
2023-02-11T13:45:51.799Z,103010.47
2023-02-11T13:48:58.561Z,103010.28
2023-02-11T13:52:17.048Z,103017.97
2023-02-11T13:55:24.636Z,103004.81
2023-02-11T13:58:30.033Z,103005.56
2023-02-11T14:02:07.622Z,102989.78
2023-02-11T14:05:37.015Z,102995.84
2023-02-11T14:09:01.910Z,102995.19
2023-02-11T14:12:34.559Z,102990.84
2023-02-11T14:15:40.706Z,102991.19
2023-02-11T14:18:46.032Z,102987.72
2023-02-11T14:21:52.349Z,102973.28
2023-02-11T14:25:01.570Z,102962.47
2023-02-11T14:28:26.225Z,102968.94
2023-02-11T14:31:44.375Z,102972.44
2023-02-11T14:35:05.197Z,102965.31
2023-02-11T14:38:25.660Z,102967.31
2023-02-11T14:41:42.183Z,102957.66
2023-02-11T14:44:51.473Z,102966.13
2023-02-11T14:48:15.230Z,102954.66
2023-02-11T14:51:40.326Z,102959.00
2023-02-11T14:54:49.636Z,102951.53
2023-02-11T14:58:19.362Z,102951.16
2023-02-11T15:01:35.573Z,102950.34
2023-02-11T15:04:42.386Z,102948.69
2023-02-11T15:07:54.471Z,102938.56
2023-02-11T15:11:03.231Z,102930.41
2023-02-11T15:14:24.245Z,102933.72
2023-02-11T15:17:32.439Z,102937.88
2023-02-11T15:20:37.835Z,102936.22
2023-02-11T15:24:00.150Z,102925.25
2023-02-11T15:27:08.676Z,102918.78
2023-02-11T15:30:25.255Z,102918.94
2023-02-11T15:33:32.496Z,102921.88
2023-02-11T15:36:38.888Z,102925.91
2023-02-11T15:39:44.731Z,102916.25
2023-02-11T15:43:04.298Z,102913.41
2023-02-11T15:46:11.988Z,102909.38
2023-02-11T15:49:19.445Z,102904.72
2023-02-11T15:52:27.899Z,102906.66
2023-02-11T15:55:33.921Z,102903.47
2023-02-11T15:58:42.355Z,102898.09
2023-02-11T16:01:49.073Z,102899.53
2023-02-11T16:05:00.486Z,102910.31
2023-02-11T16:08:25.051Z,102910.41
2023-02-11T16:11:54.502Z,102902.88
2023-02-11T16:15:20.175Z,102909.53
2023-02-11T16:18:38.307Z,102903.16
2023-02-11T16:21:45.589Z,102903.06
2023-02-11T16:24:55.466Z,102897.31
2023-02-11T16:28:01.929Z,102902.16
2023-02-11T16:31:07.418Z,102906.00
2023-02-11T16:34:15.818Z,102904.56
2023-02-11T16:37:21.578Z,102909.38
2023-02-11T16:40:27.364Z,102904.00
2023-02-11T16:43:32.766Z,102902.53
2023-02-11T16:46:38.422Z,102903.94
2023-02-11T16:49:44.168Z,102912.91
2023-02-11T16:52:49.912Z,102909.03
2023-02-11T16:55:55.303Z,102906.94
2023-02-11T16:59:01.087Z,102913.28
2023-02-11T17:02:15.899Z,102917.22
2023-02-11T17:05:23.690Z,102915.00
2023-02-11T17:08:30.231Z,102908.88
2023-02-11T17:11:35.877Z,102904.06
2023-02-11T17:14:41.328Z,102904.75
2023-02-11T17:17:46.441Z,102910.63
2023-02-11T17:20:51.825Z,102911.50
2023-02-11T17:23:58.318Z,102911.50
2023-02-11T17:27:04.217Z,102919.53
2023-02-11T17:30:11.990Z,102913.44
2023-02-11T17:33:19.106Z,102910.81
2023-02-11T17:36:24.840Z,102915.81
2023-02-11T17:39:30.203Z,102925.13
2023-02-11T17:42:35.578Z,102916.91
2023-02-11T17:45:42.415Z,102924.72
2023-02-11T17:48:48.095Z,102926.94
2023-02-11T17:51:54.019Z,102923.19
2023-02-11T17:54:59.274Z,102923.75
2023-02-11T17:58:05.008Z,102925.97
2023-02-11T18:01:11.089Z,102920.38
2023-02-11T18:04:19.526Z,102923.75
2023-02-11T18:07:26.361Z,102925.25
2023-02-11T18:10:33.694Z,102916.22
2023-02-11T18:13:39.463Z,102911.47
2023-02-11T18:16:46.392Z,102901.75
2023-02-11T18:19:57.080Z,102901.72
2023-02-11T18:23:02.935Z,102895.59
2023-02-11T18:26:10.239Z,102908.75
2023-02-11T18:29:15.652Z,102913.47
2023-02-11T18:32:21.425Z,102904.53
2023-02-11T18:35:27.562Z,102907.19
2023-02-11T18:38:33.081Z,102907.63
2023-02-11T18:41:40.239Z,102901.75
2023-02-11T18:44:45.945Z,102908.81
2023-02-11T18:47:51.521Z,102904.13
2023-02-11T18:50:56.982Z,102903.72
2023-02-11T18:54:02.587Z,102911.72
2023-02-11T18:57:08.637Z,102906.44
2023-02-11T19:00:14.758Z,102908.53
2023-02-11T19:03:20.150Z,102899.19
2023-02-11T19:06:28.831Z,102907.22
2023-02-11T19:09:34.248Z,102909.25
2023-02-11T19:12:39.682Z,102908.53
2023-02-11T19:15:46.712Z,102912.22
2023-02-11T19:18:53.024Z,102922.09
2023-02-11T19:21:59.211Z,102925.16
2023-02-11T19:25:05.230Z,102918.91
2023-02-11T19:28:12.069Z,102920.31
2023-02-11T19:31:18.001Z,102922.91
2023-02-11T19:34:23.807Z,102922.59
2023-02-11T19:37:29.544Z,102919.41
2023-02-11T19:40:35.183Z,102921.94
2023-02-11T19:43:41.444Z,102919.09
2023-02-11T19:46:48.837Z,102928.03
2023-02-11T19:49:54.480Z,102907.41
2023-02-11T19:53:02.810Z,102921.03
2023-02-11T19:56:08.744Z,102917.34
2023-02-11T19:59:15.051Z,102908.22
2023-02-11T20:02:21.001Z,102906.22
2023-02-11T20:05:26.750Z,102903.53
2023-02-11T20:08:33.539Z,102906.56
2023-02-11T20:11:40.242Z,102904.38
2023-02-11T20:14:46.317Z,102916.06
2023-02-11T20:17:51.705Z,102916.69
2023-02-11T20:20:57.400Z,102914.50
2023-02-11T20:24:03.073Z,102913.72
2023-02-11T20:27:10.748Z,102905.97
2023-02-11T20:30:16.893Z,102911.19
2023-02-11T20:33:22.273Z,102902.41
2023-02-11T20:36:32.550Z,102904.06
2023-02-11T20:39:41.299Z,102898.03
2023-02-11T20:42:47.093Z,102896.59
2023-02-11T20:45:52.880Z,102896.81
2023-02-11T20:48:59.571Z,102896.59
2023-02-11T20:52:04.913Z,102891.53
2023-02-11T20:55:10.533Z,102893.63
2023-02-11T20:58:16.398Z,102903.56
2023-02-11T21:01:25.307Z,102903.47
2023-02-11T21:04:31.356Z,102897.38
2023-02-11T21:07:39.065Z,102900.16
2023-02-11T21:10:44.858Z,102892.00
2023-02-11T21:13:51.270Z,102894.09
2023-02-11T21:16:56.970Z,102897.06
2023-02-11T21:20:02.393Z,102899.25
2023-02-11T21:23:08.227Z,102905.94
2023-02-11T21:26:13.787Z,102904.53
2023-02-11T21:29:19.061Z,102904.25
2023-02-11T21:32:24.634Z,102906.50
2023-02-11T21:35:32.665Z,102901.63
2023-02-11T21:38:38.369Z,102903.16
2023-02-11T21:41:44.241Z,102907.44
2023-02-11T21:44:49.950Z,102910.69
2023-02-11T21:47:56.338Z,102909.19
2023-02-11T21:51:05.396Z,102909.91
2023-02-11T21:54:11.527Z,102901.41
2023-02-11T21:57:18.066Z,102895.16
2023-02-11T22:00:23.536Z,102895.06
2023-02-11T22:03:29.042Z,102900.00
2023-02-11T22:06:34.944Z,102899.88
2023-02-11T22:09:41.300Z,102888.03
2023-02-11T22:12:47.215Z,102897.34
2023-02-11T22:16:05.531Z,102909.09
2023-02-11T22:19:10.838Z,102911.47
2023-02-11T22:22:18.654Z,102905.97
2023-02-11T22:25:24.511Z,102915.09
2023-02-11T22:28:30.518Z,102910.91
2023-02-11T22:31:36.637Z,102907.41
2023-02-11T22:34:42.229Z,102910.31
2023-02-11T22:37:47.774Z,102907.78
2023-02-11T22:40:54.114Z,102906.25
2023-02-11T22:43:59.697Z,102900.25
2023-02-11T22:47:05.413Z,102900.50
2023-02-11T22:50:11.224Z,102904.31
2023-02-11T22:53:17.111Z,102902.91
2023-02-11T22:56:24.352Z,102907.56
2023-02-11T22:59:30.578Z,102909.34
2023-02-11T23:02:36.461Z,102904.56
2023-02-11T23:05:42.908Z,102897.16
2023-02-11T23:08:48.726Z,102900.75
2023-02-11T23:11:54.740Z,102901.44
2023-02-11T23:15:00.949Z,102889.97
2023-02-11T23:18:08.549Z,102890.72
2023-02-11T23:21:21.515Z,102890.59
2023-02-11T23:24:26.702Z,102896.31
2023-02-11T23:27:31.972Z,102895.13
2023-02-11T23:30:38.456Z,102891.91
2023-02-11T23:33:45.021Z,102886.16
2023-02-11T23:36:50.599Z,102883.06
2023-02-11T23:39:56.189Z,102889.88
2023-02-11T23:43:02.183Z,102897.66
2023-02-11T23:46:08.459Z,102893.81
2023-02-11T23:49:15.784Z,102892.84
2023-02-11T23:52:21.476Z,102885.78
2023-02-11T23:55:27.101Z,102884.00
2023-02-11T23:58:32.436Z,102879.72
